Time;durP1;ratioP1;P1;durP2;ratioP2;P2;SDS_P1;SDS_P2;PMS_P1;PMS_P2;Temp;Humidity;BMP_temperature;BMP_pressure;BME280_temperature;BME280_humidity;BME280_pressure;Samples;Min_cycle;Max_cycle;Signal;HPM_P1;HPM_P2
2022/03/30 00:00:42;;;;;;;0.00;0.00;;;;;;;15.14;51.29;100467.44;7361408;19;20028;-63
2022/03/30 00:03:08;;;;;;;0.00;0.00;;;;;;;15.08;51.35;100465.09;7361156;19;20018;-63
2022/03/30 00:05:33;;;;;;;0.00;0.00;;;;;;;15.10;51.23;100471.13;7354492;19;20592;-64
2022/03/30 00:07:58;;;;;;;0.00;0.00;;;;;;;15.03;51.21;100469.72;7358135;19;20021;-65
2022/03/30 00:10:24;;;;;;;0.00;0.00;;;;;;;15.04;51.35;100477.53;7359770;19;20006;-64
2022/03/30 00:12:51;;;;;;;0.00;0.00;;;;;;;15.01;51.38;100474.22;7354434;19;20002;-61
2022/03/30 00:15:17;;;;;;;0.00;0.00;;;;;;;14.98;51.80;100469.06;7362765;19;20006;-64
2022/03/30 00:17:43;;;;;;;0.00;0.00;;;;;;;14.95;51.57;100475.34;7361644;19;20027;-65
2022/03/30 00:20:10;;;;;;;0.00;0.00;;;;;;;14.94;51.57;100473.59;7350553;19;20563;-65
2022/03/30 00:22:35;;;;;;;0.00;0.00;;;;;;;14.92;51.98;100474.59;7359023;19;20026;-64
2022/03/30 00:25:01;;;;;;;0.00;0.00;;;;;;;14.82;52.01;100457.53;7361531;19;20438;-64
2022/03/30 00:27:26;;;;;;;0.00;0.00;;;;;;;14.89;51.71;100466.84;7357520;19;20093;-64
2022/03/30 00:29:52;;;;;;;0.00;0.00;;;;;;;14.87;52.02;100472.19;7356902;19;20017;-64
2022/03/30 00:32:17;;;;;;;0.00;0.00;;;;;;;14.86;52.03;100474.88;7360483;19;20755;-64
2022/03/30 00:34:44;;;;;;;0.00;0.00;;;;;;;14.84;51.69;100476.72;7364025;19;20010;-64
2022/03/30 00:37:10;;;;;;;0.00;0.00;;;;;;;14.76;52.34;100475.28;7342083;19;20010;-64
2022/03/30 00:39:35;;;;;;;0.00;0.00;;;;;;;14.81;52.30;100487.38;7359906;19;20619;-64
2022/03/30 00:42:01;;;;;;;0.00;0.00;;;;;;;14.69;52.29;100458.06;7360593;19;20076;-64
2022/03/30 00:44:27;;;;;;;0.00;0.00;;;;;;;14.76;52.21;100470.03;7359110;19;20026;-64
2022/03/30 00:46:52;;;;;;;0.00;0.00;;;;;;;14.68;52.39;100456.34;7362120;19;20042;-65
2022/03/30 00:49:18;;;;;;;0.00;0.00;;;;;;;14.74;51.74;100468.38;7356313;19;20443;-64
2022/03/30 00:51:43;;;;;;;0.00;0.00;;;;;;;14.73;51.73;100474.56;7358434;19;20367;-63
2022/03/30 00:54:10;;;;;;;0.00;0.00;;;;;;;14.70;52.24;100465.03;7357444;19;20557;-64
2022/03/30 00:56:37;;;;;;;0.00;0.00;;;;;;;14.66;51.77;100458.19;7358577;19;20646;-64
2022/03/30 00:59:05;;;;;;;0.00;0.00;;;;;;;14.65;51.98;100451.25;7359034;19;20018;-64
2022/03/30 01:01:32;;;;;;;0.00;0.00;;;;;;;14.65;52.16;100455.63;7359831;19;20006;-65
2022/03/30 01:03:57;;;;;;;0.00;0.00;;;;;;;14.51;52.41;100433.44;7356085;19;20031;-63
2022/03/30 01:06:23;;;;;;;0.00;0.00;;;;;;;14.61;52.96;100440.94;7358097;19;20006;-65
2022/03/30 01:08:48;;;;;;;0.00;0.00;;;;;;;14.60;52.42;100445.34;7359824;19;20013;-63
2022/03/30 01:11:16;;;;;;;0.00;0.00;;;;;;;14.57;53.10;100429.69;7358604;19;20022;-64
2022/03/30 01:13:42;;;;;;;0.00;0.00;;;;;;;14.58;52.78;100431.38;7352709;19;20006;-65
2022/03/30 01:16:07;;;;;;;0.00;0.00;;;;;;;14.58;52.63;100430.53;7358920;19;20014;-63
2022/03/30 01:18:40;;;;;;;0.00;0.00;;;;;;;14.48;52.77;100416.94;7358559;19;20022;-64
2022/03/30 01:21:08;;;;;;;0.00;0.00;;;;;;;14.55;52.79;100423.66;7356870;19;20522;-64
2022/03/30 01:23:33;;;;;;;;;;;;;;;14.54;50.00;100424.56;7356389;19;20490;-62
2022/03/30 01:25:59;;;;;;;0.00;0.00;;;;;;;14.49;54.20;100426.53;7361096;19;19918;-64
2022/03/30 01:28:28;;;;;;;0.00;0.00;;;;;;;14.45;55.20;100422.31;7354994;19;20030;-63
2022/03/30 01:33:42;;;;;;;0.00;0.00;;;;;;;14.38;54.79;100410.34;7358480;19;20099;-64
2022/03/30 01:36:08;;;;;;;0.00;0.00;;;;;;;14.35;55.32;100413.97;7352754;19;20017;-65
2022/03/30 01:38:33;;;;;;;0.00;0.00;;;;;;;14.34;55.41;100414.88;7354689;19;20010;-64
2022/03/30 01:40:59;;;;;;;0.00;0.00;;;;;;;14.32;55.42;100416.72;7356423;19;20021;-63
2022/03/30 01:43:24;;;;;;;0.00;0.00;;;;;;;14.32;54.27;100410.63;7359847;19;20066;-64
2022/03/30 01:45:50;;;;;;;0.00;0.00;;;;;;;14.23;54.03;100396.94;7355960;19;20014;-63
2022/03/30 01:48:15;;;;;;;0.00;0.00;;;;;;;14.32;54.59;100403.59;7349632;19;20018;-63
2022/03/30 01:50:40;;;;;;;0.00;0.00;;;;;;;14.31;54.66;100401.88;7360469;19;20040;-64
2022/03/30 01:53:06;;;;;;;0.00;0.00;;;;;;;14.32;54.65;100408.00;7356293;19;20010;-64
2022/03/30 01:55:31;;;;;;;0.00;0.00;;;;;;;14.31;54.36;100403.66;7354144;19;20017;-64
2022/03/30 01:57:57;;;;;;;0.00;0.00;;;;;;;14.27;54.63;100403.78;7357770;19;20025;-64
2022/03/30 02:00:24;;;;;;;0.00;0.00;;;;;;;14.25;54.86;100395.13;7356060;19;20086;-62
2022/03/30 02:02:49;;;;;;;0.00;0.00;;;;;;;14.23;54.92;100396.94;7358240;19;20113;-63
2022/03/30 02:05:17;;;;;;;0.00;0.00;;;;;;;14.23;54.32;100388.22;7352080;19;20089;-63
2022/03/30 02:07:43;;;;;;;0.00;0.00;;;;;;;14.22;54.06;100387.38;7355369;19;20006;-64
2022/03/30 02:10:08;;;;;;;0.00;0.00;;;;;;;14.21;54.43;100383.03;7357749;19;20025;-64
2022/03/30 02:12:34;;;;;;;0.00;0.00;;;;;;;14.18;55.27;100396.28;7359892;19;20052;-64
2022/03/30 02:15:00;;;;;;;0.00;0.00;;;;;;;14.16;54.75;100387.63;7357192;19;20340;-63
2022/03/30 02:17:27;;;;;;;0.00;0.00;;;;;;;14.14;54.86;100383.34;7354387;19;20021;-64
2022/03/30 02:19:53;;;;;;;0.00;0.00;;;;;;;14.13;54.83;100389.53;7360492;19;20044;-64
2022/03/30 02:22:19;;;;;;;0.00;0.00;;;;;;;14.11;54.84;100384.34;7359528;19;20010;-64
2022/03/30 02:24:44;;;;;;;0.00;0.00;;;;;;;14.10;55.46;100384.41;7351778;19;20015;-64
2022/03/30 02:27:10;;;;;;;0.00;0.00;;;;;;;14.10;55.20;100382.66;7364210;19;20010;-65
2022/03/30 02:29:36;;;;;;;0.00;0.00;;;;;;;14.09;54.50;100386.19;7361435;19;20007;-64
2022/03/30 02:32:02;;;;;;;0.00;0.00;;;;;;;14.10;55.18;100382.66;7352840;19;20044;-64
2022/03/30 02:34:28;;;;;;;0.00;0.00;;;;;;;14.11;55.32;100386.97;7363386;19;20021;-64
2022/03/30 02:36:53;;;;;;;0.00;0.00;;;;;;;14.12;55.12;100383.41;7361518;19;20425;-65
2022/03/30 02:39:19;;;;;;;0.00;0.00;;;;;;;14.12;55.13;100383.41;7354807;19;20010;-64
2022/03/30 02:41:46;;;;;;;0.00;0.00;;;;;;;14.13;55.07;100385.13;7363454;19;20051;-64
2022/03/30 02:44:12;;;;;;;0.00;0.00;;;;;;;14.15;55.17;100387.72;7360304;19;20007;-64
2022/03/30 02:46:38;;;;;;;0.00;0.00;;;;;;;14.08;55.12;100368.72;7362877;19;20019;-63
2022/03/30 02:49:03;;;;;;;0.00;0.00;;;;;;;14.14;55.46;100375.47;7351834;19;20016;-64
2022/03/30 02:51:29;;;;;;;0.00;0.00;;;;;;;14.09;55.20;100366.94;7356846;19;20022;-64
2022/03/30 02:53:55;;;;;;;0.00;0.00;;;;;;;14.13;55.24;100372.00;7361709;19;20738;-64
2022/03/30 02:56:21;;;;;;;0.00;0.00;;;;;;;14.13;55.33;100373.78;7358315;19;20758;-64
2022/03/30 02:58:46;;;;;;;0.00;0.00;;;;;;;14.11;55.64;100370.38;7358857;19;20009;-64
2022/03/30 03:01:12;;;;;;;0.00;0.00;;;;;;;14.11;55.51;100365.97;7361161;19;20014;-65
2022/03/30 03:03:37;;;;;;;0.00;0.00;;;;;;;14.11;55.26;100359.88;7361558;19;20022;-63
2022/03/30 03:06:03;;;;;;;0.00;0.00;;;;;;;14.11;55.20;100358.09;7361933;19;20011;-64
2022/03/30 03:08:28;;;;;;;0.00;0.00;;;;;;;14.11;55.19;100354.63;7356981;19;20010;-64
2022/03/30 03:10:54;;;;;;;0.00;0.00;;;;;;;14.11;55.26;100354.63;7359139;19;20006;-64
2022/03/30 03:13:19;;;;;;;0.10;0.10;;;;;;;14.10;54.75;100351.13;7358331;19;20013;-63
2022/03/30 03:15:46;;;;;;;0.00;0.00;;;;;;;14.09;54.91;100352.06;7352911;19;20013;-64
2022/03/30 03:18:13;;;;;;;0.00;0.00;;;;;;;14.06;54.67;100339.06;7362935;19;20017;-64
2022/03/30 03:20:42;;;;;;;0.00;0.00;;;;;;;13.94;54.98;100326.47;7354931;19;20568;-63
2022/03/30 03:23:10;;;;;;;0.00;0.00;;;;;;;13.95;55.07;100334.25;7347531;19;20465;-64
2022/03/30 03:25:37;;;;;;;0.00;0.00;;;;;;;13.92;55.41;100336.16;7361407;19;20014;-64
2022/03/30 03:28:03;;;;;;;0.00;0.00;;;;;;;13.89;54.79;100333.66;7361722;19;20014;-64
2022/03/30 03:30:29;;;;;;;0.00;0.00;;;;;;;13.85;55.34;100332.09;7346511;19;20668;-64
2022/03/30 03:32:56;;;;;;;0.00;0.00;;;;;;;13.85;54.78;100332.09;7361072;19;20010;-64
2022/03/30 03:35:21;;;;;;;0.00;0.00;;;;;;;13.82;54.84;100321.72;7362701;19;20010;-64
2022/03/30 03:37:47;;;;;;;0.00;0.00;;;;;;;13.80;54.21;100318.31;7362471;19;20037;-63
2022/03/30 03:40:12;;;;;;;0.00;0.00;;;;;;;13.76;54.50;100313.19;7356830;19;20022;-64
2022/03/30 03:42:39;;;;;;;0.00;0.00;;;;;;;13.71;55.23;100314.28;7361651;19;20014;-63
2022/03/30 03:45:06;;;;;;;0.00;0.00;;;;;;;13.65;54.66;100320.66;7355111;19;20006;-63
2022/03/30 03:47:32;;;;;;;0.00;0.00;;;;;;;13.53;54.76;100302.78;7362991;19;20030;-62
2022/03/30 03:49:57;;;;;;;0.00;0.00;;;;;;;13.51;54.96;100312.50;7361932;19;20010;-64
2022/03/30 03:52:23;;;;;;;0.00;0.00;;;;;;;13.44;54.85;100301.41;7355763;19;20014;-63
2022/03/30 03:54:48;;;;;;;0.00;0.00;;;;;;;13.36;54.88;100306.09;7350082;19;20019;-63
2022/03/30 03:57:14;;;;;;;0.00;0.00;;;;;;;13.28;54.83;100300.31;7363356;19;20113;-62
2022/03/30 03:59:39;;;;;;;0.00;0.00;;;;;;;13.19;55.17;100301.50;7361726;19;20010;-64
2022/03/30 04:02:07;;;;;;;0.00;0.00;;;;;;;13.12;54.95;100297.41;7361854;19;20463;-63
2022/03/30 04:04:32;;;;;;;0.00;0.00;;;;;;;13.05;55.83;100295.94;7364384;19;20014;-62
2022/03/30 04:06:58;;;;;;;0.00;0.00;;;;;;;13.00;55.90;100292.66;7362414;19;20110;-63
2022/03/30 04:09:23;;;;;;;0.00;0.00;;;;;;;12.94;55.48;100285.03;7357449;19;20014;-63
2022/03/30 04:11:49;;;;;;;0.00;0.00;;;;;;;12.88;56.40;100280.91;7360166;19;20014;-63
2022/03/30 04:14:17;;;;;;;0.00;0.00;;;;;;;12.86;56.13;100281.84;7360127;19;20714;-62
2022/03/30 04:16:43;;;;;;;0.00;0.00;;;;;;;12.82;56.63;100272.41;7357125;19;20031;-64
2022/03/30 04:19:08;;;;;;;0.00;0.00;;;;;;;12.76;56.75;100270.03;7358953;19;20011;-64
2022/03/30 04:21:34;;;;;;;0.00;0.00;;;;;;;12.78;56.36;100273.47;7358290;19;20014;-63
2022/03/30 04:23:59;;;;;;;0.00;0.00;;;;;;;12.77;56.48;100274.34;7358276;19;20021;-63
2022/03/30 04:26:24;;;;;;;0.00;0.00;;;;;;;12.73;56.39;100271.84;7349278;19;20022;-62
2022/03/30 04:28:50;;;;;;;0.00;0.00;;;;;;;12.69;56.37;100270.25;7363455;19;20817;-63
2022/03/30 04:31:16;;;;;;;0.00;0.00;;;;;;;12.70;56.41;100271.97;7352813;19;20098;-64
2022/03/30 04:33:41;;;;;;;0.00;0.00;;;;;;;12.68;55.69;100272.94;7359365;19;20030;-63
2022/03/30 04:36:07;;;;;;;0.00;0.00;;;;;;;12.48;55.82;100250.13;7359078;19;20353;-64
2022/03/30 04:38:33;;;;;;;0.00;0.00;;;;;;;12.58;56.19;100268.97;7357481;19;20023;-63
2022/03/30 04:40:59;;;;;;;0.00;0.00;;;;;;;12.52;55.92;100274.41;7363283;19;20014;-63
2022/03/30 04:43:24;;;;;;;0.00;0.00;;;;;;;12.47;57.17;100274.63;7343145;19;20006;-64
2022/03/30 04:45:50;;;;;;;0.00;0.00;;;;;;;12.40;56.89;100275.75;7359943;19;20862;-63
2022/03/30 04:48:16;;;;;;;0.03;0.03;;;;;;;12.37;56.77;100278.50;7356807;19;20003;-63
2022/03/30 04:50:41;;;;;;;0.00;0.00;;;;;;;12.32;56.34;100280.41;7360007;19;20042;-64
2022/03/30 04:53:06;;;;;;;0.00;0.00;;;;;;;12.28;56.59;100281.44;7359165;19;20010;-64
2022/03/30 04:55:32;;;;;;;0.00;0.00;;;;;;;12.24;55.88;100282.44;7355984;19;20022;-64
2022/03/30 04:57:57;;;;;;;0.00;0.00;;;;;;;12.11;56.42;100275.03;7360867;19;20114;-63
2022/03/30 05:00:23;;;;;;;0.00;0.00;;;;;;;12.01;56.20;100270.16;7361615;19;20057;-63
2022/03/30 05:02:49;;;;;;;0.00;0.00;;;;;;;12.10;57.09;100290.78;7355547;19;20022;-63
2022/03/30 05:05:14;;;;;;;0.00;0.00;;;;;;;12.04;56.12;100289.25;7359168;19;20112;-63
2022/03/30 05:07:40;;;;;;;0.00;0.00;;;;;;;11.98;56.95;100293.84;7357591;19;20024;-63
2022/03/30 05:10:10;;;;;;;0.00;0.00;;;;;;;11.92;55.96;100287.06;7359596;19;20117;-63
2022/03/30 05:12:35;;;;;;;0.00;0.00;;;;;;;11.91;56.16;100299.31;7361436;19;20034;-63
2022/03/30 05:15:00;;;;;;;0.00;0.00;;;;;;;11.89;56.27;100292.41;7350596;19;20011;-64
2022/03/30 05:17:26;;;;;;;0.00;0.00;;;;;;;11.87;56.51;100300.31;7356116;19;20476;-63
2022/03/30 05:19:51;;;;;;;0.00;0.00;;;;;;;11.86;57.05;100302.97;7354335;19;20010;-63
2022/03/30 05:22:17;;;;;;;0.00;0.00;;;;;;;11.74;56.55;100287.66;7352475;19;20015;-64
2022/03/30 05:24:43;;;;;;;0.00;0.00;;;;;;;11.85;57.03;100302.09;7356312;19;20006;-63
2022/03/30 05:27:09;;;;;;;0.00;0.00;;;;;;;11.85;56.55;100302.09;7341634;19;20007;-64
2022/03/30 05:29:35;;;;;;;0.00;0.00;;;;;;;11.86;57.14;100300.34;7361932;19;20044;-63
2022/03/30 05:32:01;;;;;;;0.00;0.00;;;;;;;11.90;57.73;100309.81;7356994;19;20023;-63
2022/03/30 05:34:26;;;;;;;0.00;0.00;;;;;;;11.93;56.53;100309.72;7350670;19;20784;-63
2022/03/30 05:36:51;;;;;;;0.10;0.10;;;;;;;11.94;56.76;100306.19;7358447;19;20011;-63
2022/03/30 05:39:17;;;;;;;0.00;0.00;;;;;;;11.95;56.94;100297.41;7356400;19;20010;-63
2022/03/30 05:41:43;;;;;;;0.00;0.00;;;;;;;11.94;56.69;100301.78;7359922;19;20006;-64
2022/03/30 05:44:08;;;;;;;0.00;0.00;;;;;;;12.02;56.19;100309.41;7355558;19;20014;-63
2022/03/30 05:46:36;;;;;;;0.00;0.00;;;;;;;11.99;56.15;100306.88;7356956;19;20035;-64
2022/03/30 05:49:02;;;;;;;0.00;0.00;;;;;;;12.00;56.68;100298.09;7367219;19;20014;-63
2022/03/30 05:51:28;;;;;;;0.00;0.00;;;;;;;12.04;56.33;100301.47;7352632;19;20046;-64
2022/03/30 05:53:54;;;;;;;0.00;0.00;;;;;;;12.09;56.42;100307.41;7366659;19;20554;-63
2022/03/30 05:56:59;;;;;;;0.00;0.00;;;;;;;12.10;56.81;100301.25;7360088;19;20013;-62
2022/03/30 05:59:04;;;;;;;0.00;0.00;;;;;;;12.13;56.83;100307.25;7367329;19;20010;-63
2022/03/30 06:01:30;;;;;;;0.00;0.00;;;;;;;12.15;55.86;100304.56;7362504;19;20024;-64
2022/03/30 06:03:55;;;;;;;0.00;0.00;;;;;;;12.15;56.78;100302.81;7363524;19;20010;-64
2022/03/30 06:06:21;;;;;;;0.00;0.00;;;;;;;12.18;56.76;100309.72;7364217;19;20023;-63
2022/03/30 06:08:46;;;;;;;0.00;0.00;;;;;;;12.19;56.67;100312.25;7364214;19;20025;-63
2022/03/30 06:11:11;;;;;;;0.00;0.00;;;;;;;12.22;56.41;100315.69;7363072;19;20733;-63
2022/03/30 06:13:37;;;;;;;0.00;0.00;;;;;;;12.24;56.99;100308.63;7360563;19;20023;-63
2022/03/30 06:16:02;;;;;;;0.00;0.00;;;;;;;12.10;57.29;100291.63;7361251;19;20010;-62
2022/03/30 06:18:28;;;;;;;0.00;0.00;;;;;;;12.28;56.93;100315.47;7365944;19;20014;-63
2022/03/30 06:20:54;;;;;;;0.00;0.00;;;;;;;12.33;56.75;100316.16;7356635;19;20011;-62
2022/03/30 06:23:19;;;;;;;0.00;0.00;;;;;;;12.36;57.00;100321.25;7366788;19;20021;-62
2022/03/30 06:25:45;;;;;;;0.00;0.00;;;;;;;12.37;57.40;100307.28;7353723;19;20030;-61
2022/03/30 06:28:10;;;;;;;0.00;0.00;;;;;;;12.42;57.13;100314.06;7359301;19;20766;-61
2022/03/30 06:30:35;;;;;;;0.00;0.00;;;;;;;12.46;57.10;100310.41;7360637;19;20102;-63
2022/03/30 06:33:01;;;;;;;0.00;0.00;;;;;;;12.50;56.89;100319.00;7359011;19;20672;-63
2022/03/30 06:35:26;;;;;;;0.00;0.00;;;;;;;12.53;56.69;100313.66;7359130;19;20468;-64
2022/03/30 06:37:52;;;;;;;0.00;0.00;;;;;;;12.52;57.17;100306.72;7357722;19;20011;-63
2022/03/30 06:40:18;;;;;;;0.00;0.00;;;;;;;12.59;56.95;100316.06;7359237;19;20357;-63
2022/03/30 06:42:44;;;;;;;0.00;0.00;;;;;;;12.62;57.55;100305.47;7348240;19;20010;-63
2022/03/30 06:45:10;;;;;;;0.00;0.00;;;;;;;12.63;57.98;100307.19;7357158;19;20074;-63
2022/03/30 06:47:36;;;;;;;0.00;0.00;;;;;;;12.64;57.15;100308.88;7353416;19;20146;-63
2022/03/30 06:50:05;;;;;;;0.00;0.00;;;;;;;12.61;57.31;100314.22;7342551;19;20857;-63
2022/03/30 06:52:32;;;;;;;0.03;0.03;;;;;;;12.68;57.67;100325.34;7353117;19;20102;-63
2022/03/30 06:54:59;;;;;;;0.00;0.00;;;;;;;12.70;57.87;100334.00;7351774;19;20017;-64
2022/03/30 06:57:26;;;;;;;0.00;0.00;;;;;;;12.71;57.89;100331.31;7335801;19;20953;-63
2022/03/30 06:59:51;;;;;;;0.00;0.00;;;;;;;12.72;58.20;100327.78;7357445;19;20026;-61
2022/03/30 07:02:16;;;;;;;0.00;0.00;;;;;;;12.70;58.19;100329.59;7354639;19;20089;-64
2022/03/30 07:04:42;;;;;;;0.00;0.00;;;;;;;12.69;58.12;100330.53;7359778;19;20025;-63
2022/03/30 07:12:35;;;;;;;0.00;0.00;;;;;;;12.64;58.75;100326.38;7353118;19;20757;-63
2022/03/30 07:15:01;;;;;;;0.00;0.00;;;;;;;12.65;58.77;100333.31;7355098;19;20010;-63
2022/03/30 07:17:27;;;;;;;0.00;0.00;;;;;;;12.65;58.82;100335.94;7355539;19;20014;-63
2022/03/30 07:19:53;;;;;;;0.00;0.00;;;;;;;12.64;58.72;100335.06;7353921;19;20010;-63
2022/03/30 07:22:18;;;;;;;0.00;0.00;;;;;;;12.59;58.17;100336.16;7351963;19;22134;-63
2022/03/30 07:24:44;;;;;;;0.00;0.00;;;;;;;12.63;58.46;100351.72;7356650;19;20011;-63
2022/03/30 07:27:10;;;;;;;0.00;0.00;;;;;;;12.62;58.56;100341.25;7347901;19;20093;-63
2022/03/30 07:29:35;;;;;;;0.00;0.00;;;;;;;12.60;58.70;100349.19;7360388;19;20014;-64
2022/03/30 07:32:01;;;;;;;0.00;0.00;;;;;;;12.60;57.96;100338.72;7358586;19;20014;-64
2022/03/30 07:34:26;;;;;;;0.00;0.00;;;;;;;12.59;58.40;100342.25;7362654;19;20015;-62
2022/03/30 07:36:52;;;;;;;0.00;0.00;;;;;;;12.60;58.56;100346.56;7356093;19;19999;-63
2022/03/30 07:39:17;;;;;;;0.00;0.00;;;;;;;12.59;58.00;100342.25;7360386;19;20007;-64
2022/03/30 07:41:44;;;;;;;0.00;0.00;;;;;;;12.58;57.83;100345.78;7350805;19;20003;-63
2022/03/30 07:44:10;;;;;;;0.00;0.00;;;;;;;12.56;57.60;100347.59;7352823;19;20017;-63
2022/03/30 07:46:35;;;;;;;0.00;0.00;;;;;;;12.52;57.64;100351.25;7361480;19;20014;-63
2022/03/30 07:49:00;;;;;;;0.00;0.00;;;;;;;12.49;58.40;100348.72;7355231;19;20096;-63
2022/03/30 07:51:26;;;;;;;0.00;0.00;;;;;;;12.49;58.07;100346.13;7360677;19;20421;-63
2022/03/30 07:53:51;;;;;;;0.00;0.00;;;;;;;12.47;57.99;100353.19;7353322;19;20010;-63
2022/03/30 07:56:17;;;;;;;0.00;0.00;;;;;;;12.45;58.27;100352.38;7355725;19;20007;-63
2022/03/30 07:58:42;;;;;;;0.00;0.00;;;;;;;12.41;57.79;100353.38;7330918;19;20053;-63
2022/03/30 08:01:08;;;;;;;0.00;0.00;;;;;;;12.43;57.45;100356.81;7348783;19;20006;-61
2022/03/30 08:03:34;;;;;;;0.00;0.00;;;;;;;12.39;57.30;100344.75;7355253;19;20010;-63
2022/03/30 08:06:00;;;;;;;0.00;0.00;;;;;;;12.38;58.13;100354.34;7355634;19;20014;-64
2022/03/30 08:08:26;;;;;;;0.00;0.00;;;;;;;12.37;58.06;100359.66;7343796;19;20047;-63
2022/03/30 08:10:53;;;;;;;0.00;0.00;;;;;;;12.38;57.89;100361.38;7358517;19;20940;-64
2022/03/30 08:13:19;;;;;;;0.00;0.00;;;;;;;12.36;57.66;100360.53;7350947;19;20021;-64
2022/03/30 08:15:44;;;;;;;0.00;0.00;;;;;;;12.35;57.71;100361.47;7359010;19;20011;-63
2022/03/30 08:18:09;;;;;;;0.00;0.00;;;;;;;12.35;57.13;100361.47;7347897;19;20002;-63
2022/03/30 08:23:19;;;;;;;0.00;0.00;;;;;;;12.33;57.37;100365.91;7354655;19;20861;-63
2022/03/30 08:25:45;;;;;;;0.00;0.00;;;;;;;12.28;57.50;100358.22;7353869;19;20006;-63
2022/03/30 08:28:11;;;;;;;0.00;0.00;;;;;;;12.31;57.72;100362.47;7356352;19;20030;-63
2022/03/30 08:30:37;;;;;;;0.00;0.00;;;;;;;12.29;57.62;100365.16;7341378;19;20021;-62
2022/03/30 08:33:03;;;;;;;0.08;0.08;;;;;;;12.28;57.09;100358.22;7355421;19;20002;-63
2022/03/30 08:35:31;;;;;;;0.00;0.00;;;;;;;12.30;57.17;100366.00;7358240;19;20034;-63
2022/03/30 08:37:56;;;;;;;;;;;;;;;12.31;54.65;100367.69;7347574;19;22418;-63
2022/03/30 08:40:22;;;;;;;0.00;0.00;;;;;;;12.28;56.93;100362.59;7358234;19;19927;-63
2022/03/30 08:42:49;;;;;;;0.00;0.00;;;;;;;12.23;56.67;100356.66;7348297;19;20031;-63
2022/03/30 08:45:14;;;;;;;0.00;0.00;;;;;;;12.23;56.97;100365.38;7359758;19;20027;-63
2022/03/30 08:47:40;;;;;;;0.00;0.00;;;;;;;12.12;56.94;100352.66;7352284;19;20538;-62
2022/03/30 08:50:06;;;;;;;0.00;0.00;;;;;;;12.16;56.97;100362.09;7360731;19;20446;-64
2022/03/30 08:52:32;;;;;;;0.00;0.00;;;;;;;12.12;56.86;100351.81;7344420;19;20018;-62
2022/03/30 08:54:59;;;;;;;0.00;0.00;;;;;;;12.26;56.82;100367.00;7357515;19;20431;-64
2022/03/30 08:57:25;;;;;;;0.00;0.00;;;;;;;12.28;56.72;100362.59;7341591;19;20014;-63
2022/03/30 08:59:58;;;;;;;0.00;0.00;;;;;;;12.34;56.08;100365.00;7352391;19;22395;-63
2022/03/30 09:02:31;;;;;;;0.00;0.00;;;;;;;12.35;56.91;100369.31;7358140;19;20010;-63
2022/03/30 09:05:12;;;;;;;0.00;0.00;;;;;;;12.40;55.76;100364.78;7343458;19;20021;-63
2022/03/30 09:07:39;;;;;;;0.03;0.03;;;;;;;12.43;56.32;100372.53;7355193;19;20017;-64
2022/03/30 09:10:05;;;;;;;0.00;0.00;;;;;;;12.40;56.05;100362.16;7356607;19;20039;-63
2022/03/30 09:12:30;;;;;;;0.00;0.00;;;;;;;12.48;56.13;100360.13;7356030;19;20014;-63
2022/03/30 09:15:01;;;;;;;0.00;0.00;;;;;;;12.57;56.08;100378.13;7355966;19;20354;-63
2022/03/30 09:17:35;;;;;;;0.00;0.00;;;;;;;12.63;55.86;100370.03;7357755;19;20019;-62
2022/03/30 09:20:07;;;;;;;0.00;0.00;;;;;;;12.61;55.68;100371.84;7348274;19;20565;-62
2022/03/30 09:22:33;;;;;;;0.00;0.00;;;;;;;12.68;55.47;100375.97;7364222;19;20018;-63
2022/03/30 09:25:00;;;;;;;0.00;0.00;;;;;;;12.63;55.81;100364.81;7364953;19;20090;-62
2022/03/30 09:27:26;;;;;;;0.00;0.00;;;;;;;12.75;55.50;100383.59;7360154;19;20006;-64
2022/03/30 09:29:52;;;;;;;0.00;0.00;;;;;;;12.62;54.97;100351.75;7362597;19;20014;-63
2022/03/30 09:32:18;;;;;;;0.00;0.00;;;;;;;12.75;54.81;100384.44;7364049;19;20010;-63
2022/03/30 09:34:52;;;;;;;0.00;0.00;;;;;;;12.76;54.67;100380.06;7363868;19;20615;-64
2022/03/30 09:37:17;;;;;;;0.00;0.00;;;;;;;12.63;54.53;100364.81;7355218;19;20758;-63
2022/03/30 09:39:43;;;;;;;0.00;0.00;;;;;;;12.72;54.61;100385.44;7353232;19;20030;-63
2022/03/30 09:42:10;;;;;;;0.00;0.00;;;;;;;12.72;54.87;100389.78;7360623;19;20030;-63
2022/03/30 09:44:45;;;;;;;0.00;0.00;;;;;;;12.76;54.57;100387.91;7363511;19;20030;-63
2022/03/30 09:47:10;;;;;;;0.00;0.00;;;;;;;12.73;54.33;100389.75;7364479;19;20020;-64
2022/03/30 09:49:41;;;;;;;0.00;0.00;;;;;;;12.71;54.70;100383.69;7358539;19;20194;-63
2022/03/30 09:52:37;;;;;;;0.00;0.00;;;;;;;12.83;53.92;100386.81;7362107;19;20014;-64
2022/03/30 09:55:04;;;;;;;0.00;0.00;;;;;;;12.82;54.36;100390.31;7252034;19;2004951;-62
2022/03/30 09:57:43;;;;;;;;;;;;;;;12.87;53.48;100389.22;7365598;19;20010;-63
2022/03/30 10:00:14;;;;;;;0.00;0.00;;;;;;;12.84;53.63;100393.75;7359689;19;19918;-63
2022/03/30 10:02:51;;;;;;;0.10;0.10;;;;;;;12.84;52.97;100391.13;7351910;19;20622;-64
2022/03/30 10:05:21;;;;;;;0.00;0.00;;;;;;;12.80;52.84;100393.00;7361460;19;20002;-62
2022/03/30 10:07:47;;;;;;;0.00;0.00;;;;;;;12.77;53.20;100387.00;7358402;19;20010;-63
2022/03/30 10:10:17;;;;;;;0.00;0.00;;;;;;;12.76;53.61;100386.16;7365579;19;20027;-63
2022/03/30 10:12:42;;;;;;;0.00;0.00;;;;;;;12.67;53.56;100376.88;7343247;19;20078;-64
2022/03/30 10:15:10;;;;;;;0.00;0.00;;;;;;;12.77;53.11;100397.47;7346368;19;20082;-63
2022/03/30 10:17:37;;;;;;;0.00;0.00;;;;;;;12.79;53.48;100395.69;7362321;19;20006;-63
2022/03/30 10:20:05;;;;;;;0.00;0.00;;;;;;;12.79;53.42;100403.53;7363579;19;20093;-62
2022/03/30 10:22:55;;;;;;;0.00;0.00;;;;;;;12.81;52.78;100393.84;7365673;19;20043;-63
2022/03/30 10:25:24;;;;;;;0.00;0.00;;;;;;;12.78;53.08;100396.59;7261428;19;2004611;-63
2022/03/30 10:27:55;;;;;;;0.00;0.00;;;;;;;12.75;52.45;100400.19;7361002;19;20010;-63
2022/03/30 10:30:29;;;;;;;0.00;0.00;;;;;;;12.70;52.72;100387.25;7362337;19;20021;-62
2022/03/30 10:32:58;;;;;;;0.00;0.00;;;;;;;12.69;52.85;100401.25;7364745;19;20089;-63
2022/03/30 10:35:41;;;;;;;0.00;0.00;;;;;;;12.68;52.46;100398.69;7356847;19;20411;-63
2022/03/30 10:38:07;;;;;;;0.00;0.00;;;;;;;12.61;52.96;100399.81;7366231;19;20815;-64
2022/03/30 10:40:33;;;;;;;0.00;0.00;;;;;;;12.60;53.20;100411.22;7347188;19;20025;-62
2022/03/30 10:43:02;;;;;;;0.00;0.00;;;;;;;12.58;52.37;100408.66;7358274;19;20015;-64
2022/03/30 10:45:49;;;;;;;0.00;0.00;;;;;;;12.57;52.23;100406.94;7361128;19;20014;-63
2022/03/30 10:48:23;;;;;;;0.00;0.00;;;;;;;12.55;52.38;100408.75;7361774;19;20022;-63
2022/03/30 10:50:54;;;;;;;0.03;0.03;;;;;;;12.52;52.74;100406.25;7357867;19;20022;-64
2022/03/30 10:53:32;;;;;;;0.00;0.00;;;;;;;12.50;52.49;100405.44;7361588;19;20577;-63
2022/03/30 10:56:06;;;;;;;;;;;;;;;12.51;52.09;100401.91;7359451;19;20014;-63
2022/03/30 10:58:32;;;;;;;0.00;0.00;;;;;;;12.48;51.99;100402.03;7360290;19;19997;-63
2022/03/30 11:01:14;;;;;;;0.00;0.00;;;;;;;12.39;51.91;100387.47;7359872;19;20094;-64
2022/03/30 11:04:00;;;;;;;0.00;0.00;;;;;;;12.49;52.04;100403.72;7361384;19;20018;-63
2022/03/30 11:06:27;;;;;;;0.00;0.00;;;;;;;12.46;52.41;100417.78;7356798;19;20022;-64
2022/03/30 11:09:00;;;;;;;0.00;0.00;;;;;;;12.47;52.49;100410.81;7346741;19;20061;-62
2022/03/30 11:11:34;;;;;;;0.00;0.00;;;;;;;12.44;52.40;100410.91;7360113;19;20466;-63
2022/03/30 11:14:31;;;;;;;0.00;0.00;;;;;;;12.51;52.22;100416.75;7363936;19;20526;-64
2022/03/30 11:16:59;;;;;;;0.00;0.00;;;;;;;12.52;52.22;100408.88;7259019;19;2004464;-58
2022/03/30 11:19:29;;;;;;;;;;;;;;;12.59;52.10;100412.97;7361747;19;20040;-63
2022/03/30 11:22:13;;;;;;;0.00;0.00;;;;;;;12.64;52.03;100412.81;7357273;19;20632;-63
2022/03/30 11:24:41;;;;;;;0.00;0.00;;;;;;;12.66;51.76;100417.06;7362127;19;20746;-63
2022/03/30 11:27:07;;;;;;;0.00;0.00;;;;;;;12.70;51.79;100402.97;7355218;19;20017;-63
2022/03/30 11:29:47;;;;;;;0.03;0.03;;;;;;;12.82;51.57;100412.13;7359251;19;20759;-63
2022/03/30 11:32:32;;;;;;;0.00;0.00;;;;;;;12.90;50.89;100406.63;7358616;19;20019;-64
2022/03/30 11:34:59;;;;;;;0.00;0.00;;;;;;;12.86;51.38;100397.16;7365807;19;20479;-63
2022/03/30 11:37:34;;;;;;;0.00;0.00;;;;;;;13.00;51.22;100405.38;7360324;19;20435;-64